sensor_id;sensor_type;location;lat;lon;timestamp;temperature;humidity
35680;DHT22;21803;53.586;10.040;2024-01-15T00:00:03;15.30;44.40
35680;DHT22;21803;53.586;10.040;2024-01-15T00:02:29;15.30;43.80
35680;DHT22;21803;53.586;10.040;2024-01-15T00:04:55;15.30;43.80
35680;DHT22;21803;53.586;10.040;2024-01-15T00:07:20;15.30;44.40
35680;DHT22;21803;53.586;10.040;2024-01-15T00:09:46;15.30;43.80
35680;DHT22;21803;53.586;10.040;2024-01-15T00:12:11;15.30;44.40
35680;DHT22;21803;53.586;10.040;2024-01-15T00:14:37;15.30;43.80
35680;DHT22;21803;53.586;10.040;2024-01-15T00:17:02;15.30;44.30
35680;DHT22;21803;53.586;10.040;2024-01-15T00:19:28;15.30;44.30
35680;DHT22;21803;53.586;10.040;2024-01-15T00:21:57;15.30;43.80
35680;DHT22;21803;53.586;10.040;2024-01-15T00:24:23;15.30;44.30
35680;DHT22;21803;53.586;10.040;2024-01-15T00:26:48;15.30;43.80
35680;DHT22;21803;53.586;10.040;2024-01-15T00:29:14;15.30;44.30
35680;DHT22;21803;53.586;10.040;2024-01-15T00:31:39;15.30;44.30
35680;DHT22;21803;53.586;10.040;2024-01-15T00:34:05;15.30;44.40
35680;DHT22;21803;53.586;10.040;2024-01-15T00:36:30;15.30;44.30
35680;DHT22;21803;53.586;10.040;2024-01-15T00:38:56;15.20;43.80
35680;DHT22;21803;53.586;10.040;2024-01-15T00:41:22;15.30;44.30
35680;DHT22;21803;53.586;10.040;2024-01-15T00:43:48;15.30;44.30
35680;DHT22;21803;53.586;10.040;2024-01-15T00:46:16;15.30;44.30
35680;DHT22;21803;53.586;10.040;2024-01-15T00:48:42;15.30;44.30
35680;DHT22;21803;53.586;10.040;2024-01-15T00:51:08;15.30;44.30
35680;DHT22;21803;53.586;10.040;2024-01-15T00:53:33;15.30;44.30
35680;DHT22;21803;53.586;10.040;2024-01-15T00:55:59;15.30;44.30
35680;DHT22;21803;53.586;10.040;2024-01-15T00:58:26;15.30;43.80
35680;DHT22;21803;53.586;10.040;2024-01-15T01:00:51;15.30;43.80
35680;DHT22;21803;53.586;10.040;2024-01-15T01:03:17;15.30;43.80
35680;DHT22;21803;53.586;10.040;2024-01-15T01:05:43;15.20;43.70
35680;DHT22;21803;53.586;10.040;2024-01-15T01:08:09;15.20;43.80
35680;DHT22;21803;53.586;10.040;2024-01-15T01:10:34;15.30;43.80
35680;DHT22;21803;53.586;10.040;2024-01-15T01:13:00;15.20;44.30
35680;DHT22;21803;53.586;10.040;2024-01-15T01:15:26;15.20;43.70
35680;DHT22;21803;53.586;10.040;2024-01-15T01:17:52;15.30;44.30
35680;DHT22;21803;53.586;10.040;2024-01-15T01:20:18;15.30;44.30
35680;DHT22;21803;53.586;10.040;2024-01-15T01:22:43;15.30;44.30
35680;DHT22;21803;53.586;10.040;2024-01-15T01:25:09;15.30;43.70
35680;DHT22;21803;53.586;10.040;2024-01-15T01:27:35;15.30;44.30
35680;DHT22;21803;53.586;10.040;2024-01-15T01:30:01;15.30;43.70
35680;DHT22;21803;53.586;10.040;2024-01-15T01:32:26;15.30;44.30
35680;DHT22;21803;53.586;10.040;2024-01-15T01:34:52;15.30;44.30
35680;DHT22;21803;53.586;10.040;2024-01-15T01:37:18;15.30;43.80
35680;DHT22;21803;53.586;10.040;2024-01-15T01:39:44;15.30;44.30
35680;DHT22;21803;53.586;10.040;2024-01-15T01:42:09;15.20;43.70
35680;DHT22;21803;53.586;10.040;2024-01-15T01:44:35;15.30;44.30
35680;DHT22;21803;53.586;10.040;2024-01-15T01:47:01;15.30;44.30
35680;DHT22;21803;53.586;10.040;2024-01-15T01:49:27;15.30;44.30
35680;DHT22;21803;53.586;10.040;2024-01-15T01:51:55;15.30;43.80
35680;DHT22;21803;53.586;10.040;2024-01-15T01:54:21;15.20;44.30
35680;DHT22;21803;53.586;10.040;2024-01-15T01:56:48;15.30;44.30
35680;DHT22;21803;53.586;10.040;2024-01-15T01:59:15;15.20;43.70
35680;DHT22;21803;53.586;10.040;2024-01-15T02:01:41;15.20;44.20
35680;DHT22;21803;53.586;10.040;2024-01-15T02:04:07;15.20;43.70
35680;DHT22;21803;53.586;10.040;2024-01-15T02:06:33;15.30;44.20
35680;DHT22;21803;53.586;10.040;2024-01-15T02:08:59;15.30;44.30
35680;DHT22;21803;53.586;10.040;2024-01-15T02:11:26;15.30;44.30
35680;DHT22;21803;53.586;10.040;2024-01-15T02:13:51;15.30;44.30
35680;DHT22;21803;53.586;10.040;2024-01-15T02:16:17;15.30;43.80
35680;DHT22;21803;53.586;10.040;2024-01-15T02:18:44;15.30;43.70
35680;DHT22;21803;53.586;10.040;2024-01-15T02:21:10;15.30;44.30
35680;DHT22;21803;53.586;10.040;2024-01-15T02:23:36;15.20;43.70
35680;DHT22;21803;53.586;10.040;2024-01-15T02:26:02;15.20;44.20
35680;DHT22;21803;53.586;10.040;2024-01-15T02:28:28;15.30;44.30
35680;DHT22;21803;53.586;10.040;2024-01-15T02:30:54;15.30;43.70
35680;DHT22;21803;53.586;10.040;2024-01-15T02:33:20;15.30;44.30
35680;DHT22;21803;53.586;10.040;2024-01-15T02:35:45;15.30;44.20
35680;DHT22;21803;53.586;10.040;2024-01-15T02:38:15;15.30;43.70
35680;DHT22;21803;53.586;10.040;2024-01-15T02:40:42;15.20;43.70
35680;DHT22;21803;53.586;10.040;2024-01-15T02:43:08;15.30;43.70
35680;DHT22;21803;53.586;10.040;2024-01-15T02:45:33;15.20;43.70
35680;DHT22;21803;53.586;10.040;2024-01-15T02:47:59;15.30;44.20
35680;DHT22;21803;53.586;10.040;2024-01-15T02:50:24;15.30;43.70
35680;DHT22;21803;53.586;10.040;2024-01-15T02:52:50;15.30;44.30
35680;DHT22;21803;53.586;10.040;2024-01-15T02:55:16;15.30;44.30
35680;DHT22;21803;53.586;10.040;2024-01-15T02:57:41;15.30;43.70
35680;DHT22;21803;53.586;10.040;2024-01-15T03:00:07;15.30;44.30
35680;DHT22;21803;53.586;10.040;2024-01-15T03:02:36;15.20;43.70
35680;DHT22;21803;53.586;10.040;2024-01-15T03:05:02;15.30;44.30
35680;DHT22;21803;53.586;10.040;2024-01-15T03:07:28;15.30;44.30
35680;DHT22;21803;53.586;10.040;2024-01-15T03:09:53;15.30;44.30
35680;DHT22;21803;53.586;10.040;2024-01-15T03:12:19;15.30;43.80
35680;DHT22;21803;53.586;10.040;2024-01-15T03:14:44;15.30;44.30
35680;DHT22;21803;53.586;10.040;2024-01-15T03:17:10;15.30;44.30
35680;DHT22;21803;53.586;10.040;2024-01-15T03:19:36;15.20;43.70
35680;DHT22;21803;53.586;10.040;2024-01-15T03:22:02;15.30;43.70
35680;DHT22;21803;53.586;10.040;2024-01-15T03:24:29;15.30;44.30
35680;DHT22;21803;53.586;10.040;2024-01-15T03:26:54;15.30;44.30
35680;DHT22;21803;53.586;10.040;2024-01-15T03:29:20;15.30;44.30
35680;DHT22;21803;53.586;10.040;2024-01-15T03:31:46;15.30;44.30
35680;DHT22;21803;53.586;10.040;2024-01-15T03:34:11;15.30;44.30
35680;DHT22;21803;53.586;10.040;2024-01-15T03:36:37;15.30;43.80
35680;DHT22;21803;53.586;10.040;2024-01-15T03:39:02;15.30;44.30
35680;DHT22;21803;53.586;10.040;2024-01-15T03:41:28;15.30;43.80
35680;DHT22;21803;53.586;10.040;2024-01-15T03:43:53;15.30;44.30
35680;DHT22;21803;53.586;10.040;2024-01-15T03:46:19;15.30;44.30
35680;DHT22;21803;53.586;10.040;2024-01-15T03:48:44;15.30;44.90
35680;DHT22;21803;53.586;10.040;2024-01-15T03:51:10;15.30;43.80
35680;DHT22;21803;53.586;10.040;2024-01-15T03:53:36;15.30;44.30
35680;DHT22;21803;53.586;10.040;2024-01-15T03:56:03;15.30;43.80
35680;DHT22;21803;53.586;10.040;2024-01-15T03:58:28;15.30;44.50
35680;DHT22;21803;53.586;10.040;2024-01-15T04:00:54;15.30;44.30
35680;DHT22;21803;53.586;10.040;2024-01-15T04:03:19;15.30;43.80
35680;DHT22;21803;53.586;10.040;2024-01-15T04:05:45;15.30;44.30
35680;DHT22;21803;53.586;10.040;2024-01-15T04:08:10;15.30;43.80
35680;DHT22;21803;53.586;10.040;2024-01-15T04:10:36;15.30;43.80
35680;DHT22;21803;53.586;10.040;2024-01-15T04:13:01;15.30;44.30
35680;DHT22;21803;53.586;10.040;2024-01-15T04:15:28;15.30;44.30
35680;DHT22;21803;53.586;10.040;2024-01-15T04:17:54;15.30;44.30
35680;DHT22;21803;53.586;10.040;2024-01-15T04:20:20;15.30;44.30
35680;DHT22;21803;53.586;10.040;2024-01-15T04:22:45;15.20;43.70
35680;DHT22;21803;53.586;10.040;2024-01-15T04:25:11;15.30;44.30
35680;DHT22;21803;53.586;10.040;2024-01-15T04:27:36;15.30;44.30
35680;DHT22;21803;53.586;10.040;2024-01-15T04:30:02;15.30;44.20
35680;DHT22;21803;53.586;10.040;2024-01-15T04:32:27;15.30;44.30
35680;DHT22;21803;53.586;10.040;2024-01-15T04:34:53;15.30;44.30
35680;DHT22;21803;53.586;10.040;2024-01-15T04:37:18;15.30;44.30
35680;DHT22;21803;53.586;10.040;2024-01-15T04:39:44;15.30;43.70
35680;DHT22;21803;53.586;10.040;2024-01-15T04:42:10;15.30;44.20
35680;DHT22;21803;53.586;10.040;2024-01-15T04:44:35;15.30;43.70
35680;DHT22;21803;53.586;10.040;2024-01-15T04:47:01;15.30;44.20
35680;DHT22;21803;53.586;10.040;2024-01-15T04:49:26;15.30;44.20
35680;DHT22;21803;53.586;10.040;2024-01-15T04:51:52;15.30;44.20
35680;DHT22;21803;53.586;10.040;2024-01-15T04:54:18;15.30;44.10
35680;DHT22;21803;53.586;10.040;2024-01-15T04:56:44;15.30;44.10
35680;DHT22;21803;53.586;10.040;2024-01-15T04:59:10;15.30;44.10
35680;DHT22;21803;53.586;10.040;2024-01-15T05:01:36;15.30;44.10
35680;DHT22;21803;53.586;10.040;2024-01-15T05:04:01;15.30;44.10
35680;DHT22;21803;53.586;10.040;2024-01-15T05:06:27;15.30;44.10
35680;DHT22;21803;53.586;10.040;2024-01-15T05:08:53;15.30;44.10
35680;DHT22;21803;53.586;10.040;2024-01-15T05:11:18;15.30;44.10
35680;DHT22;21803;53.586;10.040;2024-01-15T05:13:44;15.30;44.10
35680;DHT22;21803;53.586;10.040;2024-01-15T05:16:09;15.30;44.10
35680;DHT22;21803;53.586;10.040;2024-01-15T05:18:35;15.30;44.10
35680;DHT22;21803;53.586;10.040;2024-01-15T05:21:03;15.30;43.40
35680;DHT22;21803;53.586;10.040;2024-01-15T05:23:28;15.30;43.40
35680;DHT22;21803;53.586;10.040;2024-01-15T05:30:46;15.30;43.40
35680;DHT22;21803;53.586;10.040;2024-01-15T05:33:12;15.30;43.40
35680;DHT22;21803;53.586;10.040;2024-01-15T05:38:03;15.10;43.30
35680;DHT22;21803;53.586;10.040;2024-01-15T05:40:29;15.30;43.40
35680;DHT22;21803;53.586;10.040;2024-01-15T05:42:54;15.30;43.40
35680;DHT22;21803;53.586;10.040;2024-01-15T05:45:20;15.30;43.40
35680;DHT22;21803;53.586;10.040;2024-01-15T05:47:45;15.30;43.30
35680;DHT22;21803;53.586;10.040;2024-01-15T05:52:37;15.30;43.30
35680;DHT22;21803;53.586;10.040;2024-01-15T05:55:02;15.30;43.30
35680;DHT22;21803;53.586;10.040;2024-01-15T05:57:28;15.30;43.30
35680;DHT22;21803;53.586;10.040;2024-01-15T05:59:54;15.30;43.30
35680;DHT22;21803;53.586;10.040;2024-01-15T06:07:11;15.30;43.30
35680;DHT22;21803;53.586;10.040;2024-01-15T06:09:37;15.30;43.40
35680;DHT22;21803;53.586;10.040;2024-01-15T06:14:29;15.30;43.40
35680;DHT22;21803;53.586;10.040;2024-01-15T06:16:55;15.30;43.40
35680;DHT22;21803;53.586;10.040;2024-01-15T06:24:12;15.30;43.40
35680;DHT22;21803;53.586;10.040;2024-01-15T06:29:04;15.30;43.30
35680;DHT22;21803;53.586;10.040;2024-01-15T06:31:30;15.30;43.30
35680;DHT22;21803;53.586;10.040;2024-01-15T06:38:47;15.30;43.30
35680;DHT22;21803;53.586;10.040;2024-01-15T06:41:13;15.30;43.30
35680;DHT22;21803;53.586;10.040;2024-01-15T06:43:39;15.30;43.40
35680;DHT22;21803;53.586;10.040;2024-01-15T06:46:04;15.30;43.40
35680;DHT22;21803;53.586;10.040;2024-01-15T07:15:18;15.30;43.30
35680;DHT22;21803;53.586;10.040;2024-01-15T07:20:10;15.30;43.20
35680;DHT22;21803;53.586;10.040;2024-01-15T07:25:02;15.30;43.30
35680;DHT22;21803;53.586;10.040;2024-01-15T07:29:56;15.30;43.30
35680;DHT22;21803;53.586;10.040;2024-01-15T07:49:25;15.30;43.20
35680;DHT22;21803;53.586;10.040;2024-01-15T07:51:50;15.30;43.10
35680;DHT22;21803;53.586;10.040;2024-01-15T07:56:56;15.30;43.10
35680;DHT22;21803;53.586;10.040;2024-01-15T07:59:22;15.30;43.10
35680;DHT22;21803;53.586;10.040;2024-01-15T08:01:48;15.30;43.10
35680;DHT22;21803;53.586;10.040;2024-01-15T08:11:34;15.30;43.10
35680;DHT22;21803;53.586;10.040;2024-01-15T08:13:59;15.30;43.10
35680;DHT22;21803;53.586;10.040;2024-01-15T08:16:25;15.30;43.10
35680;DHT22;21803;53.586;10.040;2024-01-15T08:18:50;15.30;43.00
35680;DHT22;21803;53.586;10.040;2024-01-15T08:28:34;15.30;43.00
35680;DHT22;21803;53.586;10.040;2024-01-15T08:33:25;15.30;42.90
35680;DHT22;21803;53.586;10.040;2024-01-15T08:38:19;15.30;42.90
35680;DHT22;21803;53.586;10.040;2024-01-15T08:40:44;15.30;43.00
35680;DHT22;21803;53.586;10.040;2024-01-15T08:43:10;15.30;43.00
35680;DHT22;21803;53.586;10.040;2024-01-15T08:50:27;15.30;43.00
35680;DHT22;21803;53.586;10.040;2024-01-15T08:55:19;15.20;42.90
35680;DHT22;21803;53.586;10.040;2024-01-15T08:57:48;15.30;43.00
35680;DHT22;21803;53.586;10.040;2024-01-15T09:00:14;15.30;42.90
35680;DHT22;21803;53.586;10.040;2024-01-15T09:02:39;15.30;42.90
35680;DHT22;21803;53.586;10.040;2024-01-15T09:05:05;15.30;42.90
35680;DHT22;21803;53.586;10.040;2024-01-15T09:07:31;15.30;42.90
35680;DHT22;21803;53.586;10.040;2024-01-15T09:09:57;15.30;42.90
35680;DHT22;21803;53.586;10.040;2024-01-15T09:12:25;15.30;42.90
35680;DHT22;21803;53.586;10.040;2024-01-15T09:14:50;15.30;42.90
35680;DHT22;21803;53.586;10.040;2024-01-15T09:19:43;15.30;42.90
35680;DHT22;21803;53.586;10.040;2024-01-15T09:22:09;15.20;42.90
35680;DHT22;21803;53.586;10.040;2024-01-15T09:24:35;15.30;43.00
35680;DHT22;21803;53.586;10.040;2024-01-15T09:27:00;15.30;43.00
35680;DHT22;21803;53.586;10.040;2024-01-15T09:29:26;15.30;43.00
35680;DHT22;21803;53.586;10.040;2024-01-15T09:34:18;15.30;43.00
35680;DHT22;21803;53.586;10.040;2024-01-15T09:36:44;15.30;43.00
35680;DHT22;21803;53.586;10.040;2024-01-15T09:41:37;15.30;43.00
35680;DHT22;21803;53.586;10.040;2024-01-15T09:44:03;15.30;43.00
35680;DHT22;21803;53.586;10.040;2024-01-15T09:46:31;15.30;43.00
35680;DHT22;21803;53.586;10.040;2024-01-15T09:51:24;15.30;43.00
35680;DHT22;21803;53.586;10.040;2024-01-15T09:53:50;15.30;43.00
35680;DHT22;21803;53.586;10.040;2024-01-15T10:01:08;15.30;43.00
35680;DHT22;21803;53.586;10.040;2024-01-15T10:03:34;15.30;43.10
35680;DHT22;21803;53.586;10.040;2024-01-15T10:15:46;15.30;43.10
35680;DHT22;21803;53.586;10.040;2024-01-15T10:18:15;15.30;43.10
35680;DHT22;21803;53.586;10.040;2024-01-15T10:20:40;15.30;43.10
35680;DHT22;21803;53.586;10.040;2024-01-15T10:28:03;15.30;43.10
35680;DHT22;21803;53.586;10.040;2024-01-15T10:30:29;15.30;43.10
35680;DHT22;21803;53.586;10.040;2024-01-15T10:33:01;15.30;43.10
35680;DHT22;21803;53.586;10.040;2024-01-15T10:35:31;15.30;43.10
35680;DHT22;21803;53.586;10.040;2024-01-15T10:38:01;15.30;43.10
35680;DHT22;21803;53.586;10.040;2024-01-15T10:40:27;15.30;43.10
35680;DHT22;21803;53.586;10.040;2024-01-15T10:42:53;15.30;43.10
35680;DHT22;21803;53.586;10.040;2024-01-15T10:45:19;15.30;43.10
35680;DHT22;21803;53.586;10.040;2024-01-15T10:47:44;15.30;43.10
35680;DHT22;21803;53.586;10.040;2024-01-15T10:50:10;15.30;43.10
35680;DHT22;21803;53.586;10.040;2024-01-15T10:55:03;15.30;43.10
35680;DHT22;21803;53.586;10.040;2024-01-15T10:57:30;15.30;43.10
35680;DHT22;21803;53.586;10.040;2024-01-15T10:59:55;15.30;43.10
35680;DHT22;21803;53.586;10.040;2024-01-15T11:02:21;15.30;43.10
35680;DHT22;21803;53.586;10.040;2024-01-15T11:07:13;15.30;43.10
35680;DHT22;21803;53.586;10.040;2024-01-15T11:12:13;15.30;43.10
35680;DHT22;21803;53.586;10.040;2024-01-15T11:14:49;15.30;43.10
35680;DHT22;21803;53.586;10.040;2024-01-15T11:17:16;15.30;43.10
35680;DHT22;21803;53.586;10.040;2024-01-15T11:22:09;15.30;43.10
35680;DHT22;21803;53.586;10.040;2024-01-15T11:24:41;15.30;43.70
35680;DHT22;21803;53.586;10.040;2024-01-15T11:27:07;15.30;43.70
35680;DHT22;21803;53.586;10.040;2024-01-15T11:29:37;15.30;43.70
35680;DHT22;21803;53.586;10.040;2024-01-15T11:32:07;15.30;43.30
35680;DHT22;21803;53.586;10.040;2024-01-15T11:37:18;15.30;43.70
35680;DHT22;21803;53.586;10.040;2024-01-15T11:39:43;15.30;43.80
35680;DHT22;21803;53.586;10.040;2024-01-15T11:42:10;15.30;43.80
35680;DHT22;21803;53.586;10.040;2024-01-15T11:44:37;15.30;43.30
35680;DHT22;21803;53.586;10.040;2024-01-15T11:47:08;15.30;43.80
35680;DHT22;21803;53.586;10.040;2024-01-15T11:52:21;15.30;43.80
35680;DHT22;21803;53.586;10.040;2024-01-15T11:55:00;15.30;43.80
35680;DHT22;21803;53.586;10.040;2024-01-15T11:57:42;15.30;43.80
35680;DHT22;21803;53.586;10.040;2024-01-15T12:00:10;15.30;43.30
35680;DHT22;21803;53.586;10.040;2024-01-15T12:02:38;15.30;43.80
35680;DHT22;21803;53.586;10.040;2024-01-15T12:05:04;15.30;43.80
35680;DHT22;21803;53.586;10.040;2024-01-15T12:07:30;15.30;43.80
35680;DHT22;21803;53.586;10.040;2024-01-15T12:09:55;15.30;43.80
35680;DHT22;21803;53.586;10.040;2024-01-15T12:12:35;15.30;43.80
35680;DHT22;21803;53.586;10.040;2024-01-15T12:15:03;15.30;43.80
35680;DHT22;21803;53.586;10.040;2024-01-15T12:17:29;15.30;43.80
35680;DHT22;21803;53.586;10.040;2024-01-15T12:19:55;15.30;43.80
35680;DHT22;21803;53.586;10.040;2024-01-15T12:22:21;15.30;43.90
35680;DHT22;21803;53.586;10.040;2024-01-15T12:24:47;15.30;43.90
35680;DHT22;21803;53.586;10.040;2024-01-15T12:27:13;15.30;43.80
35680;DHT22;21803;53.586;10.040;2024-01-15T12:29:38;15.30;43.90
35680;DHT22;21803;53.586;10.040;2024-01-15T12:32:05;15.30;43.80
35680;DHT22;21803;53.586;10.040;2024-01-15T12:34:31;15.30;43.90
35680;DHT22;21803;53.586;10.040;2024-01-15T12:36:58;15.30;44.50
35680;DHT22;21803;53.586;10.040;2024-01-15T12:39:24;15.30;43.80
35680;DHT22;21803;53.586;10.040;2024-01-15T12:41:51;15.30;43.80
35680;DHT22;21803;53.586;10.040;2024-01-15T12:44:16;15.30;43.80
35680;DHT22;21803;53.586;10.040;2024-01-15T12:46:42;15.30;43.80
35680;DHT22;21803;53.586;10.040;2024-01-15T12:49:08;15.30;43.80
35680;DHT22;21803;53.586;10.040;2024-01-15T12:51:36;15.30;43.80
35680;DHT22;21803;53.586;10.040;2024-01-15T12:54:02;15.30;43.80
35680;DHT22;21803;53.586;10.040;2024-01-15T12:56:28;15.30;43.80
35680;DHT22;21803;53.586;10.040;2024-01-15T12:58:53;15.30;43.80
35680;DHT22;21803;53.586;10.040;2024-01-15T13:01:19;15.30;43.80
35680;DHT22;21803;53.586;10.040;2024-01-15T13:03:44;15.30;43.80
35680;DHT22;21803;53.586;10.040;2024-01-15T13:06:10;15.30;43.80
35680;DHT22;21803;53.586;10.040;2024-01-15T13:08:36;15.30;43.80
35680;DHT22;21803;53.586;10.040;2024-01-15T13:11:03;15.30;43.70
35680;DHT22;21803;53.586;10.040;2024-01-15T13:13:28;15.30;44.40
35680;DHT22;21803;53.586;10.040;2024-01-15T13:15:54;15.30;43.80
35680;DHT22;21803;53.586;10.040;2024-01-15T13:18:19;15.30;43.20
35680;DHT22;21803;53.586;10.040;2024-01-15T13:20:45;15.30;43.80
35680;DHT22;21803;53.586;10.040;2024-01-15T13:23:11;15.30;43.70
35680;DHT22;21803;53.586;10.040;2024-01-15T13:25:37;15.30;43.70
35680;DHT22;21803;53.586;10.040;2024-01-15T13:28:04;15.30;43.70
35680;DHT22;21803;53.586;10.040;2024-01-15T13:30:30;15.30;43.70
35680;DHT22;21803;53.586;10.040;2024-01-15T13:32:56;15.30;43.70
35680;DHT22;21803;53.586;10.040;2024-01-15T13:35:23;15.30;43.70
35680;DHT22;21803;53.586;10.040;2024-01-15T13:37:48;15.30;43.70
35680;DHT22;21803;53.586;10.040;2024-01-15T13:40:14;15.30;43.20
35680;DHT22;21803;53.586;10.040;2024-01-15T13:42:45;15.30;43.70
35680;DHT22;21803;53.586;10.040;2024-01-15T13:45:11;15.30;43.70
35680;DHT22;21803;53.586;10.040;2024-01-15T13:47:40;15.30;43.70
35680;DHT22;21803;53.586;10.040;2024-01-15T13:50:06;15.30;43.10
35680;DHT22;21803;53.586;10.040;2024-01-15T13:52:32;15.30;43.60
35680;DHT22;21803;53.586;10.040;2024-01-15T13:54:57;15.30;43.60
35680;DHT22;21803;53.586;10.040;2024-01-15T13:57:23;15.30;43.60
35680;DHT22;21803;53.586;10.040;2024-01-15T13:59:48;13.40;42.70
35680;DHT22;21803;53.586;10.040;2024-01-15T14:02:14;15.30;43.60
35680;DHT22;21803;53.586;10.040;2024-01-15T14:04:40;15.30;43.60
35680;DHT22;21803;53.586;10.040;2024-01-15T14:07:06;15.30;43.60
35680;DHT22;21803;53.586;10.040;2024-01-15T14:09:32;15.30;43.60
35680;DHT22;21803;53.586;10.040;2024-01-15T14:11:58;15.40;43.60
35680;DHT22;21803;53.586;10.040;2024-01-15T14:14:23;15.30;43.60
35680;DHT22;21803;53.586;10.040;2024-01-15T14:16:49;15.30;43.60
35680;DHT22;21803;53.586;10.040;2024-01-15T14:19:15;15.30;43.50
35680;DHT22;21803;53.586;10.040;2024-01-15T14:21:42;15.30;43.60
35680;DHT22;21803;53.586;10.040;2024-01-15T14:24:07;15.30;43.50
35680;DHT22;21803;53.586;10.040;2024-01-15T14:26:34;15.30;43.60
35680;DHT22;21803;53.586;10.040;2024-01-15T14:29:00;15.30;43.50
35680;DHT22;21803;53.586;10.040;2024-01-15T14:31:25;15.30;43.50
35680;DHT22;21803;53.586;10.040;2024-01-15T14:33:52;15.30;43.50
35680;DHT22;21803;53.586;10.040;2024-01-15T14:36:17;15.30;43.00
35680;DHT22;21803;53.586;10.040;2024-01-15T14:38:43;15.30;43.50
35680;DHT22;21803;53.586;10.040;2024-01-15T14:41:08;15.30;43.50
35680;DHT22;21803;53.586;10.040;2024-01-15T14:43:34;19.40;45.50
35680;DHT22;21803;53.586;10.040;2024-01-15T14:45:59;15.30;43.50
35680;DHT22;21803;53.586;10.040;2024-01-15T14:48:25;15.30;43.50
35680;DHT22;21803;53.586;10.040;2024-01-15T14:50:51;15.30;43.50
35680;DHT22;21803;53.586;10.040;2024-01-15T14:53:16;15.30;43.50
35680;DHT22;21803;53.586;10.040;2024-01-15T14:55:42;15.30;43.50
35680;DHT22;21803;53.586;10.040;2024-01-15T14:58:08;15.30;43.50
35680;DHT22;21803;53.586;10.040;2024-01-15T15:00:34;15.30;43.40
35680;DHT22;21803;53.586;10.040;2024-01-15T15:02:59;15.30;43.50
35680;DHT22;21803;53.586;10.040;2024-01-15T15:05:25;15.30;43.40
35680;DHT22;21803;53.586;10.040;2024-01-15T15:07:51;15.30;43.40
35680;DHT22;21803;53.586;10.040;2024-01-15T15:10:17;15.30;42.90
35680;DHT22;21803;53.586;10.040;2024-01-15T15:12:42;15.30;43.40
35680;DHT22;21803;53.586;10.040;2024-01-15T15:15:09;15.30;43.40
35680;DHT22;21803;53.586;10.040;2024-01-15T15:17:37;15.40;43.50
35680;DHT22;21803;53.586;10.040;2024-01-15T15:20:03;15.30;42.90
35680;DHT22;21803;53.586;10.040;2024-01-15T15:22:28;15.30;43.40
35680;DHT22;21803;53.586;10.040;2024-01-15T15:24:54;15.30;43.40
35680;DHT22;21803;53.586;10.040;2024-01-15T15:27:20;15.30;42.90
35680;DHT22;21803;53.586;10.040;2024-01-15T15:29:45;15.30;43.40
35680;DHT22;21803;53.586;10.040;2024-01-15T15:32:13;15.30;43.40
35680;DHT22;21803;53.586;10.040;2024-01-15T15:34:39;15.30;43.40
35680;DHT22;21803;53.586;10.040;2024-01-15T15:37:04;15.30;43.40
35680;DHT22;21803;53.586;10.040;2024-01-15T15:39:30;15.30;43.40
35680;DHT22;21803;53.586;10.040;2024-01-15T15:41:56;15.30;43.40
35680;DHT22;21803;53.586;10.040;2024-01-15T15:44:21;15.30;43.40
35680;DHT22;21803;53.586;10.040;2024-01-15T15:46:47;15.30;43.40
35680;DHT22;21803;53.586;10.040;2024-01-15T15:49:13;15.30;43.30
35680;DHT22;21803;53.586;10.040;2024-01-15T15:51:40;15.30;43.40
35680;DHT22;21803;53.586;10.040;2024-01-15T15:54:06;15.30;43.40
35680;DHT22;21803;53.586;10.040;2024-01-15T15:56:33;15.30;43.40
35680;DHT22;21803;53.586;10.040;2024-01-15T15:59:06;15.30;42.80
35680;DHT22;21803;53.586;10.040;2024-01-15T16:01:34;15.30;44.00
35680;DHT22;21803;53.586;10.040;2024-01-15T16:04:00;15.30;43.40
35680;DHT22;21803;53.586;10.040;2024-01-15T16:06:26;15.30;42.80
35680;DHT22;21803;53.586;10.040;2024-01-15T16:08:51;15.30;42.80
35680;DHT22;21803;53.586;10.040;2024-01-15T16:11:17;15.30;43.40
35680;DHT22;21803;53.586;10.040;2024-01-15T16:13:43;15.30;42.80
35680;DHT22;21803;53.586;10.040;2024-01-15T16:16:09;15.40;43.40
35680;DHT22;21803;53.586;10.040;2024-01-15T16:18:34;15.30;43.30
35680;DHT22;21803;53.586;10.040;2024-01-15T16:21:01;15.30;43.30
35680;DHT22;21803;53.586;10.040;2024-01-15T16:23:26;15.40;43.40
35680;DHT22;21803;53.586;10.040;2024-01-15T16:25:52;15.30;43.40
35680;DHT22;21803;53.586;10.040;2024-01-15T16:28:17;15.30;43.30
35680;DHT22;21803;53.586;10.040;2024-01-15T16:30:43;15.30;43.40
35680;DHT22;21803;53.586;10.040;2024-01-15T16:33:08;15.30;43.30
35680;DHT22;21803;53.586;10.040;2024-01-15T16:35:34;15.30;43.30
35680;DHT22;21803;53.586;10.040;2024-01-15T16:38:00;15.30;43.30
35680;DHT22;21803;53.586;10.040;2024-01-15T16:40:26;15.30;43.40
35680;DHT22;21803;53.586;10.040;2024-01-15T16:42:51;15.30;42.80
35680;DHT22;21803;53.586;10.040;2024-01-15T16:45:17;15.30;43.40
35680;DHT22;21803;53.586;10.040;2024-01-15T16:47:43;15.20;42.70
35680;DHT22;21803;53.586;10.040;2024-01-15T16:50:09;15.20;42.80
35680;DHT22;21803;53.586;10.040;2024-01-15T16:52:34;15.30;43.30
35680;DHT22;21803;53.586;10.040;2024-01-15T16:55:00;15.30;43.30
35680;DHT22;21803;53.586;10.040;2024-01-15T16:57:25;15.30;43.30
35680;DHT22;21803;53.586;10.040;2024-01-15T16:59:51;15.30;43.30
35680;DHT22;21803;53.586;10.040;2024-01-15T17:02:16;15.30;42.80
35680;DHT22;21803;53.586;10.040;2024-01-15T17:04:42;15.30;43.30
35680;DHT22;21803;53.586;10.040;2024-01-15T17:07:08;15.30;42.80
35680;DHT22;21803;53.586;10.040;2024-01-15T17:09:33;19.20;45.80
35680;DHT22;21803;53.586;10.040;2024-01-15T17:11:59;15.30;43.30
35680;DHT22;21803;53.586;10.040;2024-01-15T17:14:24;15.30;43.30
35680;DHT22;21803;53.586;10.040;2024-01-15T17:16:50;15.30;42.80
35680;DHT22;21803;53.586;10.040;2024-01-15T17:19:15;15.30;43.30
35680;DHT22;21803;53.586;10.040;2024-01-15T17:21:41;15.30;43.20
35680;DHT22;21803;53.586;10.040;2024-01-15T17:24:06;15.30;43.30
35680;DHT22;21803;53.586;10.040;2024-01-15T17:26:32;15.30;43.30
35680;DHT22;21803;53.586;10.040;2024-01-15T17:28:58;15.30;43.30
35680;DHT22;21803;53.586;10.040;2024-01-15T17:31:23;15.30;43.30
35680;DHT22;21803;53.586;10.040;2024-01-15T17:33:49;15.30;43.30
35680;DHT22;21803;53.586;10.040;2024-01-15T17:36:14;15.30;43.30
35680;DHT22;21803;53.586;10.040;2024-01-15T17:38:40;15.30;42.80
35680;DHT22;21803;53.586;10.040;2024-01-15T17:41:06;15.30;42.80